Time;durP1;ratioP1;P1;durP2;ratioP2;P2;SDS_P1;SDS_P2;PMS_P1;PMS_P2;Temp;Humidity;BMP_temperature;BMP_pressure;BME280_temperature;BME280_humidity;BME280_pressure;Samples;Min_cycle;Max_cycle;Signal;HPM_P1;HPM_P2
2021/01/31 00:02:01;;;;;;;39.20;20.17;;;;;;;;;;5108975;28;20046;-69
2021/01/31 00:04:27;;;;;;;41.53;21.95;;;;;;;;;;5111974;28;20520;-71
2021/01/31 00:06:55;;;;;;;41.88;23.88;;;;;;;;;;5112234;28;20031;-70
2021/01/31 00:09:21;;;;;;;44.88;23.77;;;;;;;;;;5110485;28;20050;-70
2021/01/31 00:11:47;;;;;;;39.47;24.98;;;;;;;;;;5105929;28;20024;-69
2021/01/31 00:14:13;;;;;;;41.70;20.92;;;;;;;;;;5110911;27;20031;-69
2021/01/31 00:16:39;;;;;;;47.78;24.20;;;;;;;;;;5111277;28;20024;-70
2021/01/31 00:19:05;;;;;;;45.30;24.15;;;;;;;;;;5111327;28;20053;-69
2021/01/31 00:21:31;;;;;;;40.28;23.15;;;;;;;;;;5109654;28;20080;-69
2021/01/31 00:23:58;;;;;;;41.50;20.42;;;;;;;;;;5109813;28;20027;-69
2021/01/31 00:26:24;;;;;;;42.47;19.50;;;;;;;;;;5111432;28;20032;-69
2021/01/31 00:28:50;;;;;;;45.83;23.55;;;;;;;;;;5111648;27;20020;-69
2021/01/31 00:31:16;;;;;;;43.47;21.67;;;;;;;;;;5107886;28;20202;-69
2021/01/31 00:33:42;;;;;;;42.47;23.40;;;;;;;;;;5116843;27;20492;-69
2021/01/31 00:36:08;;;;;;;44.30;23.88;;;;;;;;;;5113635;27;20030;-69
2021/01/31 00:38:34;;;;;;;44.60;20.98;;;;;;;;;;5111123;27;20027;-69
2021/01/31 00:41:00;;;;;;;45.92;22.48;;;;;;;;;;5106893;28;20083;-70
2021/01/31 00:43:27;;;;;;;43.95;20.92;;;;;;;;;;5118078;27;20031;-69
2021/01/31 00:45:54;;;;;;;41.17;20.83;;;;;;;;;;5111586;28;20176;-70
2021/01/31 00:48:21;;;;;;;45.08;23.50;;;;;;;;;;5108893;27;20028;-69
2021/01/31 00:50:47;;;;;;;44.95;21.80;;;;;;;;;;5105399;28;20020;-69
2021/01/31 00:53:13;;;;;;;45.38;24.23;;;;;;;;;;5113321;27;20023;-69
2021/01/31 00:55:39;;;;;;;46.78;23.27;;;;;;;;;;5114110;27;20073;-69
2021/01/31 00:58:05;;;;;;;49.65;27.35;;;;;;;;;;5107588;27;20042;-68
2021/01/31 01:00:32;;;;;;;43.92;26.20;;;;;;;;;;5115869;27;20023;-70
2021/01/31 01:02:59;;;;;;;42.97;21.13;;;;;;;;;;5109719;27;20053;-69
2021/01/31 01:05:26;;;;;;;43.97;22.67;;;;;;;;;;5112122;28;20031;-68
2021/01/31 01:07:53;;;;;;;45.15;20.65;;;;;;;;;;5112533;27;20552;-69
2021/01/31 01:10:20;;;;;;;49.97;26.83;;;;;;;;;;5108676;28;20028;-71
2021/01/31 01:12:47;;;;;;;41.28;20.45;;;;;;;;;;5112884;27;20123;-69
2021/01/31 01:15:14;;;;;;;39.05;18.27;;;;;;;;;;5111872;27;20447;-69
2021/01/31 01:17:40;;;;;;;42.35;19.23;;;;;;;;;;5121855;27;20027;-69
2021/01/31 01:20:06;;;;;;;46.92;23.67;;;;;;;;;;5102538;28;20021;-69
2021/01/31 01:22:33;;;;;;;50.08;26.27;;;;;;;;;;5094222;28;20062;-69
2021/01/31 01:25:02;;;;;;;40.70;21.85;;;;;;;;;;5109432;28;20038;-68
2021/01/31 01:27:28;;;;;;;47.60;25.10;;;;;;;;;;5113179;27;20032;-69
2021/01/31 01:29:54;;;;;;;43.72;23.60;;;;;;;;;;5109129;27;20100;-69
2021/01/31 01:32:20;;;;;;;44.83;22.42;;;;;;;;;;5108204;28;20035;-68
2021/01/31 01:34:46;;;;;;;43.92;23.17;;;;;;;;;;5111012;28;20011;-69
2021/01/31 01:37:13;;;;;;;44.15;21.38;;;;;;;;;;5111251;27;20030;-69
2021/01/31 01:39:39;;;;;;;46.17;23.25;;;;;;;;;;5111413;27;20024;-69
2021/01/31 01:42:06;;;;;;;46.38;24.30;;;;;;;;;;5110903;28;20020;-69
2021/01/31 01:44:33;;;;;;;43.00;21.80;;;;;;;;;;5107507;28;20517;-69
2021/01/31 01:47:02;;;;;;;41.60;21.45;;;;;;;;;;5112591;27;20507;-69
2021/01/31 01:49:30;;;;;;;43.67;24.42;;;;;;;;;;5105901;27;20039;-68
2021/01/31 01:52:03;;;;;;;48.17;23.58;;;;;;;;;;5097317;28;20028;-70
2021/01/31 01:54:37;;;;;;;41.53;21.23;;;;;;;;;;5097732;28;20026;-69
2021/01/31 01:57:06;;;;;;;44.03;23.10;;;;;;;;;;5095292;28;20465;-69
2021/01/31 01:59:34;;;;;;;47.25;23.83;;;;;;;;;;5104495;28;20039;-69
2021/01/31 02:02:21;;;;;;;46.22;24.33;;;;;;;;;;5106965;28;20048;-68
2021/01/31 02:04:48;;;;;;;51.40;26.67;;;;;;;;;;5111983;27;20031;-69
2021/01/31 02:07:14;;;;;;;47.15;22.60;;;;;;;;;;5120657;27;20020;-70
2021/01/31 02:09:42;;;;;;;44.17;21.90;;;;;;;;;;5110528;27;20041;-69
2021/01/31 02:12:09;;;;;;;49.78;24.85;;;;;;;;;;5107884;27;20107;-69
2021/01/31 02:14:35;;;;;;;44.15;24.58;;;;;;;;;;5111547;27;20022;-70
2021/01/31 02:17:10;;;;;;;47.13;23.50;;;;;;;;;;5108939;28;20077;-69
2021/01/31 02:19:39;;;;;;;46.03;23.75;;;;;;;;;;5109523;27;20054;-69
2021/01/31 02:22:17;;;;;;;48.53;24.35;;;;;;;;;;5096980;28;20027;-69
2021/01/31 02:24:58;;;;;;;42.42;20.52;;;;;;;;;;5109809;28;20038;-69
2021/01/31 02:27:24;;;;;;;44.08;24.63;;;;;;;;;;5111595;27;20032;-71
2021/01/31 02:30:02;;;;;;;46.50;25.35;;;;;;;;;;5117237;27;21052;-69
2021/01/31 02:32:47;;;;;;;44.55;20.33;;;;;;;;;;5110456;28;20019;-69
2021/01/31 02:35:20;;;;;;;45.72;21.42;;;;;;;;;;5110217;27;20043;-69
2021/01/31 02:37:56;;;;;;;49.92;25.48;;;;;;;;;;5109768;28;20036;-70
2021/01/31 02:40:33;;;;;;;51.70;21.38;;;;;;;;;;5098277;28;20029;-69
2021/01/31 02:42:59;;;;;;;51.67;25.80;;;;;;;;;;5106873;28;20015;-70
2021/01/31 02:45:30;;;;;;;50.80;26.42;;;;;;;;;;5107936;28;20039;-69
2021/01/31 02:47:59;;;;;;;44.67;28.10;;;;;;;;;;5112072;27;20039;-71
2021/01/31 02:50:36;;;;;;;50.97;24.48;;;;;;;;;;5115264;28;20076;-69
2021/01/31 02:53:01;;;;;;;45.28;24.17;;;;;;;;;;5109686;27;20051;-69
2021/01/31 02:55:32;;;;;;;48.70;23.95;;;;;;;;;;5110508;27;20233;-69
2021/01/31 02:58:04;;;;;;;52.00;27.98;;;;;;;;;;5111582;27;20493;-70
2021/01/31 03:00:33;;;;;;;51.75;26.75;;;;;;;;;;5098347;28;20028;-70
2021/01/31 03:03:08;;;;;;;47.88;24.27;;;;;;;;;;5111634;28;20417;-70
2021/01/31 03:05:36;;;;;;;52.35;25.38;;;;;;;;;;5110293;28;20035;-71
2021/01/31 03:08:07;;;;;;;47.97;21.27;;;;;;;;;;5113179;28;20153;-69
2021/01/31 03:10:37;;;;;;;45.33;21.25;;;;;;;;;;5111548;28;20296;-69
2021/01/31 03:13:26;;;;;;;47.88;26.75;;;;;;;;;;5113400;27;20015;-70
2021/01/31 03:15:58;;;;;;;50.35;26.05;;;;;;;;;;5120130;27;20493;-70
2021/01/31 03:18:30;;;;;;;47.58;19.52;;;;;;;;;;5118998;27;20043;-71
2021/01/31 03:21:10;;;;;;;54.58;26.90;;;;;;;;;;5102325;27;20039;-70
2021/01/31 03:23:48;;;;;;;50.90;24.08;;;;;;;;;;5118774;27;20035;-71
2021/01/31 03:26:33;;;;;;;43.20;19.05;;;;;;;;;;5117828;27;20019;-71
2021/01/31 03:28:59;;;;;;;51.80;26.63;;;;;;;;;;5114255;27;20104;-75
2021/01/31 03:31:27;;;;;;;57.53;24.85;;;;;;;;;;5110175;28;20028;-71
2021/01/31 03:34:06;;;;;;;56.25;26.50;;;;;;;;;;5120866;27;20023;-71
2021/01/31 03:36:32;;;;;;;51.95;28.00;;;;;;;;;;5117455;27;20493;-73
2021/01/31 03:38:59;;;;;;;51.30;25.40;;;;;;;;;;5130407;27;20023;-72
2021/01/31 03:41:26;;;;;;;47.92;23.48;;;;;;;;;;5112406;27;20024;-71
2021/01/31 03:43:53;;;;;;;52.55;23.73;;;;;;;;;;5112932;28;20030;-71
2021/01/31 03:46:37;;;;;;;52.78;23.67;;;;;;;;;;5113770;28;20061;-71
2021/01/31 03:49:06;;;;;;;52.30;23.92;;;;;;;;;;5113359;28;20035;-71
2021/01/31 03:51:33;;;;;;;48.05;22.15;;;;;;;;;;5110121;28;20040;-71
2021/01/31 03:53:59;;;;;;;54.85;29.77;;;;;;;;;;5113528;28;20029;-71
2021/01/31 03:56:30;;;;;;;50.22;23.35;;;;;;;;;;5112221;28;20039;-72
2021/01/31 03:58:57;;;;;;;49.92;22.35;;;;;;;;;;5113409;28;20029;-71
2021/01/31 04:01:25;;;;;;;57.70;29.20;;;;;;;;;;5116010;27;20125;-72
2021/01/31 04:03:55;;;;;;;52.03;26.15;;;;;;;;;;5113723;27;20031;-72
2021/01/31 04:06:23;;;;;;;49.50;22.38;;;;;;;;;;5121969;27;20046;-72
2021/01/31 04:08:51;;;;;;;49.88;22.38;;;;;;;;;;5114026;27;20135;-72
2021/01/31 04:11:34;;;;;;;51.05;22.42;;;;;;;;;;5112427;27;20019;-72
2021/01/31 04:14:02;;;;;;;53.70;23.40;;;;;;;;;;5118082;27;20038;-72
2021/01/31 04:16:32;;;;;;;59.22;30.33;;;;;;;;;;5112660;28;20034;-72
2021/01/31 04:18:58;;;;;;;54.75;27.27;;;;;;;;;;5112757;28;20459;-72
2021/01/31 04:21:24;;;;;;;50.58;25.30;;;;;;;;;;5110551;28;20035;-72
2021/01/31 04:23:50;;;;;;;56.42;25.02;;;;;;;;;;5116263;27;20023;-72
2021/01/31 04:26:16;;;;;;;56.35;25.33;;;;;;;;;;5117787;27;20031;-72
2021/01/31 04:28:42;;;;;;;57.85;27.90;;;;;;;;;;5112204;28;20027;-72
2021/01/31 04:31:08;;;;;;;54.83;25.80;;;;;;;;;;5112939;27;20581;-71
2021/01/31 04:33:34;;;;;;;59.53;29.90;;;;;;;;;;5107976;27;20053;-72
2021/01/31 04:36:00;;;;;;;56.78;26.13;;;;;;;;;;5114420;27;20016;-72
2021/01/31 04:38:26;;;;;;;59.03;25.92;;;;;;;;;;5104489;27;20039;-72
2021/01/31 04:40:52;;;;;;;57.75;25.83;;;;;;;;;;5111275;28;20032;-73
2021/01/31 04:43:19;;;;;;;55.40;26.25;;;;;;;;;;5116786;27;20023;-72
2021/01/31 04:45:46;;;;;;;61.63;31.67;;;;;;;;;;5112624;27;20041;-72
2021/01/31 04:48:24;;;;;;;54.28;26.63;;;;;;;;;;5112129;27;20046;-72
2021/01/31 04:50:53;;;;;;;57.45;27.33;;;;;;;;;;5111175;27;20063;-72
2021/01/31 04:53:38;;;;;;;59.25;25.10;;;;;;;;;;5109268;28;20020;-73
2021/01/31 04:56:22;;;;;;;58.80;28.92;;;;;;;;;;5121556;27;20031;-72
2021/01/31 04:58:49;;;;;;;57.05;30.45;;;;;;;;;;5112124;28;20024;-72
2021/01/31 05:01:15;;;;;;;56.60;27.30;;;;;;;;;;5109437;27;20150;-72
2021/01/31 05:03:45;;;;;;;53.00;23.95;;;;;;;;;;5110982;28;20485;-71
2021/01/31 05:06:14;;;;;;;59.35;29.33;;;;;;;;;;5118155;27;20085;-72
2021/01/31 05:08:40;;;;;;;59.53;30.90;;;;;;;;;;5122393;27;20073;-72
2021/01/31 05:11:18;;;;;;;56.67;24.80;;;;;;;;;;5112106;27;20028;-72
2021/01/31 05:13:51;;;;;;;58.92;24.80;;;;;;;;;;5112112;28;20035;-72
2021/01/31 05:16:18;;;;;;;57.60;30.23;;;;;;;;;;5112327;28;20016;-73
2021/01/31 05:18:45;;;;;;;59.67;29.42;;;;;;;;;;5111114;28;20019;-73
2021/01/31 05:21:12;;;;;;;56.50;26.67;;;;;;;;;;5110991;28;20534;-72
2021/01/31 05:23:43;;;;;;;55.72;29.70;;;;;;;;;;5113597;27;20031;-73
2021/01/31 05:26:11;;;;;;;61.80;29.98;;;;;;;;;;5114165;27;20073;-72
2021/01/31 05:28:39;;;;;;;55.58;25.88;;;;;;;;;;5111486;28;20039;-72
2021/01/31 05:31:05;;;;;;;58.20;26.13;;;;;;;;;;5111511;27;20027;-73
2021/01/31 05:33:46;;;;;;;54.70;26.35;;;;;;;;;;5116633;27;20032;-73
2021/01/31 05:36:12;;;;;;;;;;;;;;;;;;5107638;28;20082;-73
2021/01/31 05:38:40;;;;;;;53.55;25.10;;;;;;;;;;5116698;27;19907;-73
2021/01/31 05:41:26;;;;;;;59.90;26.73;;;;;;;;;;5110445;28;20023;-72
2021/01/31 05:44:00;;;;;;;55.97;26.40;;;;;;;;;;5103766;28;20123;-72
2021/01/31 05:46:35;;;;;;;53.53;21.50;;;;;;;;;;5111875;28;20187;-72
2021/01/31 05:49:01;;;;;;;56.42;27.98;;;;;;;;;;5110883;28;20028;-72
2021/01/31 05:51:31;;;;;;;53.75;27.98;;;;;;;;;;5108915;27;20417;-72
2021/01/31 05:53:57;;;;;;;59.70;32.63;;;;;;;;;;5119522;27;20118;-71
2021/01/31 05:56:30;;;;;;;58.83;29.60;;;;;;;;;;5114174;27;20020;-73
2021/01/31 05:58:59;;;;;;;54.90;24.85;;;;;;;;;;5111732;27;20024;-72
2021/01/31 06:01:27;;;;;;;54.42;28.48;;;;;;;;;;5114127;27;20504;-73
2021/01/31 06:04:11;;;;;;;57.95;32.22;;;;;;;;;;5109615;28;20073;-73
2021/01/31 06:06:37;;;;;;;53.25;26.42;;;;;;;;;;5111996;28;20070;-72
2021/01/31 06:09:12;;;;;;;52.90;27.38;;;;;;;;;;5110196;27;20034;-73
2021/01/31 06:11:39;;;;;;;58.30;27.05;;;;;;;;;;5120549;27;20164;-73
2021/01/31 06:14:07;;;;;;;62.67;27.13;;;;;;;;;;5112426;27;20493;-72
2021/01/31 06:16:34;;;;;;;58.03;31.02;;;;;;;;;;5110385;28;20031;-73
2021/01/31 06:19:06;;;;;;;59.83;28.63;;;;;;;;;;5110170;27;20532;-72
2021/01/31 06:21:40;;;;;;;59.90;27.30;;;;;;;;;;5108016;28;20020;-73
2021/01/31 06:24:19;;;;;;;60.88;26.50;;;;;;;;;;5110116;28;20068;-73
2021/01/31 06:26:46;;;;;;;57.03;25.88;;;;;;;;;;5112346;27;20051;-73
2021/01/31 06:29:21;;;;;;;58.58;27.35;;;;;;;;;;5114807;27;20019;-73
2021/01/31 06:31:51;;;;;;;57.38;27.52;;;;;;;;;;5110832;28;20039;-73
2021/01/31 06:34:17;;;;;;;62.53;29.88;;;;;;;;;;5117493;27;20019;-73
2021/01/31 06:37:12;;;;;;;56.50;25.55;;;;;;;;;;5113910;27;20024;-73
2021/01/31 06:39:47;;;;;;;58.65;27.55;;;;;;;;;;5108330;28;20046;-73
2021/01/31 06:42:20;;;;;;;61.42;31.25;;;;;;;;;;5106626;28;20031;-73
2021/01/31 06:44:50;;;;;;;56.58;27.67;;;;;;;;;;5108752;28;20020;-73
2021/01/31 06:47:16;;;;;;;64.90;31.25;;;;;;;;;;5112127;27;20126;-73
2021/01/31 06:50:01;;;;;;;87.28;42.05;;;;;;;;;;5111977;27;20105;-73
2021/01/31 06:52:39;;;;;;;62.70;32.60;;;;;;;;;;5108893;28;20107;-73
2021/01/31 06:55:13;;;;;;;69.13;33.78;;;;;;;;;;5098616;28;20035;-73
2021/01/31 06:57:43;;;;;;;63.00;33.40;;;;;;;;;;5111538;27;20031;-74
2021/01/31 07:00:21;;;;;;;68.07;36.72;;;;;;;;;;5111080;28;20016;-74
2021/01/31 07:02:59;;;;;;;65.03;34.42;;;;;;;;;;5111797;28;20048;-74
2021/01/31 07:05:44;;;;;;;63.53;30.95;;;;;;;;;;5103313;28;20100;-73
2021/01/31 07:08:25;;;;;;;58.20;27.27;;;;;;;;;;5111401;28;20027;-73
2021/01/31 07:10:54;;;;;;;97.60;49.55;;;;;;;;;;5110074;28;20024;-75
2021/01/31 07:13:36;;;;;;;88.20;43.13;;;;;;;;;;5109842;28;20027;-75
2021/01/31 07:16:20;;;;;;;178.95;71.57;;;;;;;;;;5106038;28;20020;-74
2021/01/31 07:18:51;;;;;;;118.47;48.67;;;;;;;;;;5109485;28;20062;-74
2021/01/31 07:21:21;;;;;;;65.28;32.88;;;;;;;;;;5119565;28;20038;-74
2021/01/31 07:23:49;;;;;;;84.53;36.58;;;;;;;;;;5114047;28;20080;-74
2021/01/31 07:26:15;;;;;;;104.63;53.50;;;;;;;;;;5116020;28;20020;-74
2021/01/31 07:28:42;;;;;;;105.85;51.17;;;;;;;;;;5121341;28;20039;-74
2021/01/31 07:31:12;;;;;;;66.32;36.97;;;;;;;;;;5113810;28;20023;-74
2021/01/31 07:33:40;;;;;;;61.67;28.88;;;;;;;;;;5113449;28;20400;-73
2021/01/31 07:36:27;;;;;;;63.75;32.83;;;;;;;;;;5108177;28;20031;-75
2021/01/31 07:39:05;;;;;;;58.97;28.10;;;;;;;;;;5101899;28;20032;-74
2021/01/31 07:41:32;;;;;;;60.85;27.42;;;;;;;;;;5109268;28;20031;-73
2021/01/31 07:44:00;;;;;;;60.35;33.97;;;;;;;;;;5108233;28;20039;-74
2021/01/31 07:46:26;;;;;;;62.05;29.67;;;;;;;;;;5115487;28;20117;-74
2021/01/31 07:48:52;;;;;;;54.22;24.08;;;;;;;;;;5109425;28;20605;-73
2021/01/31 07:51:27;;;;;;;59.40;30.85;;;;;;;;;;5114593;28;20030;-74
2021/01/31 07:53:57;;;;;;;60.65;29.88;;;;;;;;;;5111529;28;20016;-75
2021/01/31 07:56:34;;;;;;;60.47;28.05;;;;;;;;;;5110701;28;20092;-73
2021/01/31 07:59:00;;;;;;;58.75;23.48;;;;;;;;;;5111710;28;20027;-73
2021/01/31 08:01:42;;;;;;;49.50;24.27;;;;;;;;;;5113209;27;20054;-74
2021/01/31 08:04:17;;;;;;;54.97;26.58;;;;;;;;;;5112296;27;20037;-74
2021/01/31 08:06:52;;;;;;;53.50;27.05;;;;;;;;;;5126276;27;20031;-74
2021/01/31 08:09:25;;;;;;;55.22;26.27;;;;;;;;;;5113096;27;20049;-73
2021/01/31 08:11:54;;;;;;;52.28;25.33;;;;;;;;;;5109310;28;20024;-74
2021/01/31 08:14:38;;;;;;;54.25;30.77;;;;;;;;;;5111003;28;20035;-74
2021/01/31 08:17:04;;;;;;;53.72;28.40;;;;;;;;;;5101583;27;20031;-73
2021/01/31 08:19:31;;;;;;;51.40;25.10;;;;;;;;;;5116051;27;20032;-74
2021/01/31 08:22:05;;;;;;;56.10;26.73;;;;;;;;;;5115576;27;20521;-74
2021/01/31 08:24:49;;;;;;;55.30;26.08;;;;;;;;;;5123387;27;20035;-73
2021/01/31 08:27:21;;;;;;;55.70;30.58;;;;;;;;;;5107639;28;20027;-74
2021/01/31 08:30:07;;;;;;;57.58;29.08;;;;;;;;;;5107788;27;20553;-74
2021/01/31 08:32:33;;;;;;;50.92;23.70;;;;;;;;;;5107964;27;20042;-73
2021/01/31 08:35:18;;;;;;;57.38;29.20;;;;;;;;;;5121345;27;20035;-74
2021/01/31 08:37:44;;;;;;;53.60;27.45;;;;;;;;;;5118994;27;20031;-73
2021/01/31 08:40:14;;;;;;;57.20;28.90;;;;;;;;;;5107072;27;20024;-74
2021/01/31 08:42:47;;;;;;;53.63;26.77;;;;;;;;;;5106188;27;20040;-73
2021/01/31 08:45:13;;;;;;;55.08;25.13;;;;;;;;;;5116402;27;20031;-73
2021/01/31 08:47:42;;;;;;;53.65;27.85;;;;;;;;;;5112711;27;20077;-73
2021/01/31 08:50:09;;;;;;;56.22;28.88;;;;;;;;;;5113086;27;20024;-73
2021/01/31 08:52:36;;;;;;;55.03;34.58;;;;;;;;;;5111482;27;20024;-77
2021/01/31 08:55:04;;;;;;;52.92;27.00;;;;;;;;;;5114811;27;20027;-74
2021/01/31 08:57:31;;;;;;;54.17;27.42;;;;;;;;;;5113085;28;20089;-72
2021/01/31 08:59:59;;;;;;;56.75;32.03;;;;;;;;;;5099101;28;20028;-71
2021/01/31 09:02:26;;;;;;;56.95;31.52;;;;;;;;;;5101888;27;20047;-74
2021/01/31 09:04:57;;;;;;;56.95;27.25;;;;;;;;;;5104771;27;20053;-73
2021/01/31 09:07:34;;;;;;;55.47;28.65;;;;;;;;;;5102424;27;20043;-73
2021/01/31 09:10:06;;;;;;;53.67;27.55;;;;;;;;;;5109320;28;20027;-73
2021/01/31 09:12:32;;;;;;;55.58;26.70;;;;;;;;;;5114668;27;20547;-72
2021/01/31 09:15:21;;;;;;;54.45;29.55;;;;;;;;;;5111795;28;20385;-73
2021/01/31 09:17:47;;;;;;;49.60;26.27;;;;;;;;;;5115091;27;20023;-73
2021/01/31 09:20:13;;;;;;;52.83;24.27;;;;;;;;;;5112813;27;20027;-72
2021/01/31 09:22:42;;;;;;;54.33;27.52;;;;;;;;;;5115886;27;20031;-73
2021/01/31 09:25:09;;;;;;;52.53;27.13;;;;;;;;;;5112423;27;20024;-72
2021/01/31 09:27:39;;;;;;;51.70;27.58;;;;;;;;;;5113068;27;20040;-72
2021/01/31 09:30:07;;;;;;;51.65;28.52;;;;;;;;;;5121889;27;20063;-73
2021/01/31 09:32:45;;;;;;;49.58;25.52;;;;;;;;;;5107088;28;20030;-73
2021/01/31 09:35:15;;;;;;;50.38;27.60;;;;;;;;;;5109465;27;20262;-72
2021/01/31 09:37:41;;;;;;;48.03;27.15;;;;;;;;;;5122104;27;20031;-72
2021/01/31 09:40:09;;;;;;;51.45;26.60;;;;;;;;;;5115454;27;20126;-72
2021/01/31 09:42:36;;;;;;;50.35;28.55;;;;;;;;;;5110835;27;20024;-72
2021/01/31 09:45:04;;;;;;;48.67;28.20;;;;;;;;;;5103555;27;20531;-72
2021/01/31 09:47:31;;;;;;;42.22;21.67;;;;;;;;;;5109513;28;20039;-71
2021/01/31 09:49:59;;;;;;;48.97;26.40;;;;;;;;;;5105401;28;20043;-71
2021/01/31 09:52:25;;;;;;;50.67;28.83;;;;;;;;;;5105568;28;20030;-72
2021/01/31 09:54:51;;;;;;;61.85;30.10;;;;;;;;;;5111146;28;20497;-72
2021/01/31 09:57:22;;;;;;;54.50;30.00;;;;;;;;;;5107634;28;20027;-72
2021/01/31 09:59:49;;;;;;;51.60;32.30;;;;;;;;;;5110471;28;20043;-73
2021/01/31 10:02:22;;;;;;;43.70;24.00;;;;;;;;;;5106149;28;20074;-71
2021/01/31 10:04:55;;;;;;;48.28;25.42;;;;;;;;;;5106436;27;20118;-72
2021/01/31 10:07:30;;;;;;;54.95;25.42;;;;;;;;;;5106890;28;20031;-71
2021/01/31 10:09:57;;;;;;;45.97;22.50;;;;;;;;;;5108093;28;20486;-72
2021/01/31 10:12:34;;;;;;;48.30;26.52;;;;;;;;;;5106474;28;20239;-72
2021/01/31 10:15:00;;;;;;;41.45;21.50;;;;;;;;;;5105633;28;20110;-70
2021/01/31 10:17:28;;;;;;;40.75;19.35;;;;;;;;;;5106800;28;20050;-74
2021/01/31 10:20:13;;;;;;;43.20;23.48;;;;;;;;;;5104422;28;20422;-72
2021/01/31 10:22:41;;;;;;;39.85;17.83;;;;;;;;;;5099357;28;20092;-71
2021/01/31 10:25:10;;;;;;;43.22;24.77;;;;;;;;;;5108781;28;20031;-71
2021/01/31 10:27:43;;;;;;;42.63;24.38;;;;;;;;;;5109138;28;20481;-73
2021/01/31 10:30:21;;;;;;;40.60;21.98;;;;;;;;;;5104123;28;20043;-71
2021/01/31 10:32:47;;;;;;;37.05;14.35;;;;;;;;;;5105026;28;20015;-69
2021/01/31 10:35:23;;;;;;;39.65;24.13;;;;;;;;;;5109461;27;20476;-70
2021/01/31 10:37:49;;;;;;;39.35;21.60;;;;;;;;;;5105637;28;20085;-67
2021/01/31 10:40:16;;;;;;;40.80;22.67;;;;;;;;;;5105659;28;20035;-71
2021/01/31 10:42:42;;;;;;;37.67;23.02;;;;;;;;;;5106034;28;20032;-70
2021/01/31 10:45:20;;;;;;;38.75;20.58;;;;;;;;;;5108233;28;20032;-70
2021/01/31 10:47:46;;;;;;;40.15;22.67;;;;;;;;;;5103787;28;20020;-70
2021/01/31 10:50:14;;;;;;;36.67;22.38;;;;;;;;;;5101102;28;20493;-70
2021/01/31 10:52:41;;;;;;;33.88;15.93;;;;;;;;;;5104831;28;20055;-68
2021/01/31 10:55:07;;;;;;;41.53;21.83;;;;;;;;;;5108470;28;20011;-71
2021/01/31 10:57:33;;;;;;;40.55;25.60;;;;;;;;;;5107919;28;20032;-71
2021/01/31 11:00:00;;;;;;;42.95;26.73;;;;;;;;;;5108763;28;20027;-70
2021/01/31 11:02:26;;;;;;;42.15;25.75;;;;;;;;;;5100765;28;20071;-71
2021/01/31 11:04:52;;;;;;;38.88;20.40;;;;;;;;;;5106365;28;20031;-69
2021/01/31 11:07:18;;;;;;;38.88;21.95;;;;;;;;;;5109304;28;20027;-70
2021/01/31 11:09:44;;;;;;;40.45;19.80;;;;;;;;;;5106657;28;20073;-69
2021/01/31 11:12:10;;;;;;;39.13;22.95;;;;;;;;;;5105897;28;20024;-69
2021/01/31 11:14:36;;;;;;;39.30;21.48;;;;;;;;;;5109326;28;20028;-70
2021/01/31 11:17:02;;;;;;;36.30;20.40;;;;;;;;;;5110622;28;20015;-68
2021/01/31 11:19:28;;;;;;;34.70;19.40;;;;;;;;;;5110420;28;20087;-70
2021/01/31 11:21:54;;;;;;;37.88;19.73;;;;;;;;;;5118946;28;20027;-68
2021/01/31 11:24:20;;;;;;;38.25;21.95;;;;;;;;;;5109723;28;20160;-70
2021/01/31 11:26:46;;;;;;;34.17;18.25;;;;;;;;;;5109397;28;20059;-69
2021/01/31 11:29:12;;;;;;;37.35;20.10;;;;;;;;;;5105360;28;20024;-70
2021/01/31 11:31:38;;;;;;;37.22;21.45;;;;;;;;;;5104434;28;20144;-68
2021/01/31 11:34:04;;;;;;;37.80;19.75;;;;;;;;;;5107823;28;20039;-69
2021/01/31 11:36:30;;;;;;;34.03;20.45;;;;;;;;;;5105348;28;20042;-68
2021/01/31 11:38:56;;;;;;;34.35;22.10;;;;;;;;;;5107863;28;20035;-70
2021/01/31 11:41:22;;;;;;;37.90;20.17;;;;;;;;;;5108958;28;20190;-70
2021/01/31 11:43:48;;;;;;;37.78;20.63;;;;;;;;;;5102132;28;20501;-69
2021/01/31 11:46:14;;;;;;;37.30;23.27;;;;;;;;;;5112888;28;20030;-68
2021/01/31 11:48:40;;;;;;;34.72;17.55;;;;;;;;;;5110223;28;20031;-69
2021/01/31 11:51:06;;;;;;;35.22;21.75;;;;;;;;;;5103410;28;20277;-68
2021/01/31 11:53:34;;;;;;;38.33;19.92;;;;;;;;;;5113122;28;20115;-69
2021/01/31 11:56:00;;;;;;;33.25;23.23;;;;;;;;;;5111545;28;21006;-73
2021/01/31 11:58:26;;;;;;;34.35;18.15;;;;;;;;;;5112421;28;20050;-69
2021/01/31 12:00:52;;;;;;;36.80;18.65;;;;;;;;;;5111560;28;20031;-70
2021/01/31 12:03:18;;;;;;;26.48;12.10;;;;;;;;;;5104924;28;20020;-68
2021/01/31 12:05:44;;;;;;;39.72;21.17;;;;;;;;;;5107720;27;20076;-68
2021/01/31 12:08:10;;;;;;;34.67;20.08;;;;;;;;;;5112461;28;20031;-70
2021/01/31 12:10:36;;;;;;;33.38;21.10;;;;;;;;;;5112107;28;20053;-69
2021/01/31 12:13:03;;;;;;;36.72;17.83;;;;;;;;;;5106926;27;20103;-70
2021/01/31 12:15:30;;;;;;;35.45;21.77;;;;;;;;;;5111157;28;20020;-69
2021/01/31 12:17:56;;;;;;;36.95;19.35;;;;;;;;;;5109549;27;20032;-71
2021/01/31 12:20:22;;;;;;;35.72;17.50;;;;;;;;;;5109795;27;20027;-70
2021/01/31 12:22:48;;;;;;;36.72;19.17;;;;;;;;;;5106280;28;20552;-69
2021/01/31 12:25:15;;;;;;;34.50;19.50;;;;;;;;;;5104420;28;21149;-70
2021/01/31 12:27:48;;;;;;;32.83;18.90;;;;;;;;;;5112167;28;20023;-70
2021/01/31 12:30:15;;;;;;;34.70;19.73;;;;;;;;;;5110402;28;20382;-70
2021/01/31 12:32:41;;;;;;;36.10;16.02;;;;;;;;;;5109514;28;20123;-70
2021/01/31 12:35:07;;;;;;;29.10;13.40;;;;;;;;;;5111252;27;20031;-69
2021/01/31 12:37:33;;;;;;;35.42;21.20;;;;;;;;;;5104680;28;20019;-71
2021/01/31 12:40:00;;;;;;;34.17;21.63;;;;;;;;;;5108070;28;20311;-70
2021/01/31 12:42:26;;;;;;;35.72;18.30;;;;;;;;;;5107903;28;20035;-69
2021/01/31 12:44:52;;;;;;;31.23;16.88;;;;;;;;;;5110515;28;20046;-70
2021/01/31 12:47:18;;;;;;;37.13;17.58;;;;;;;;;;5104735;28;20500;-70
2021/01/31 12:49:45;;;;;;;33.10;18.30;;;;;;;;;;5110028;27;20408;-70
2021/01/31 12:52:11;;;;;;;32.08;19.77;;;;;;;;;;5108982;28;20047;-71
2021/01/31 12:54:37;;;;;;;35.83;21.13;;;;;;;;;;5112092;28;20031;-69
2021/01/31 12:57:03;;;;;;;35.70;20.58;;;;;;;;;;5110631;28;20020;-68
2021/01/31 12:59:29;;;;;;;29.30;14.95;;;;;;;;;;5106593;28;20035;-69
2021/01/31 13:01:55;;;;;;;38.65;20.27;;;;;;;;;;5099198;28;20127;-70
2021/01/31 13:04:21;;;;;;;33.30;20.02;;;;;;;;;;5108492;28;20035;-70
2021/01/31 13:06:48;;;;;;;36.10;19.15;;;;;;;;;;5110518;28;20031;-70
2021/01/31 13:09:14;;;;;;;32.78;17.35;;;;;;;;;;5105065;28;20074;-70
2021/01/31 13:11:40;;;;;;;35.60;17.83;;;;;;;;;;5099147;28;21300;-70
2021/01/31 13:14:06;;;;;;;31.30;19.38;;;;;;;;;;5103285;27;20024;-71
2021/01/31 13:16:32;;;;;;;33.92;16.33;;;;;;;;;;5111466;28;20024;-69
2021/01/31 13:18:58;;;;;;;31.83;19.98;;;;;;;;;;5106213;28;20068;-70
2021/01/31 13:21:24;;;;;;;28.90;17.85;;;;;;;;;;5106305;28;20099;-70
2021/01/31 13:23:50;;;;;;;29.58;18.65;;;;;;;;;;5110378;28;20477;-69
2021/01/31 13:26:17;;;;;;;32.90;16.52;;;;;;;;;;5123880;27;20509;-71
2021/01/31 13:28:43;;;;;;;22.95;12.57;;;;;;;;;;5110095;28;20023;-70
2021/01/31 13:31:09;;;;;;;28.25;15.40;;;;;;;;;;5100786;28;20176;-70
2021/01/31 13:33:35;;;;;;;26.52;13.98;;;;;;;;;;5110633;28;20038;-70
2021/01/31 13:36:01;;;;;;;27.58;18.58;;;;;;;;;;5113633;27;20035;-69
2021/01/31 13:38:27;;;;;;;29.23;17.13;;;;;;;;;;5107363;28;20066;-69
2021/01/31 13:40:54;;;;;;;26.40;14.48;;;;;;;;;;5110305;28;20028;-70
2021/01/31 13:43:20;;;;;;;28.00;15.52;;;;;;;;;;5109269;28;20119;-71
2021/01/31 13:45:46;;;;;;;27.73;11.98;;;;;;;;;;5109984;28;20427;-69
2021/01/31 13:48:12;;;;;;;39.88;17.13;;;;;;;;;;5108376;28;20132;-70
2021/01/31 13:50:38;;;;;;;25.80;15.38;;;;;;;;;;5111422;28;20393;-68
2021/01/31 13:53:04;;;;;;;26.73;15.23;;;;;;;;;;5107513;28;20012;-69
2021/01/31 13:55:30;;;;;;;28.60;16.80;;;;;;;;;;5105884;28;20371;-70
2021/01/31 13:57:56;;;;;;;24.40;16.58;;;;;;;;;;5100897;28;20047;-71
2021/01/31 14:00:23;;;;;;;26.88;14.43;;;;;;;;;;5110799;28;20040;-69
2021/01/31 14:02:50;;;;;;;26.30;12.32;;;;;;;;;;5106471;28;20036;-69
2021/01/31 14:05:16;;;;;;;26.20;16.92;;;;;;;;;;5100028;28;20115;-71
2021/01/31 14:07:43;;;;;;;27.50;16.13;;;;;;;;;;5110443;28;20049;-72
2021/01/31 14:10:10;;;;;;;26.52;14.73;;;;;;;;;;5107173;28;20027;-69
2021/01/31 14:12:36;;;;;;;25.00;15.27;;;;;;;;;;5100358;27;20039;-69
2021/01/31 14:15:02;;;;;;;26.63;17.92;;;;;;;;;;5095995;28;20086;-71
2021/01/31 14:17:28;;;;;;;29.15;13.95;;;;;;;;;;5106001;28;20047;-68
2021/01/31 14:19:54;;;;;;;28.55;15.93;;;;;;;;;;5102353;28;20402;-70
2021/01/31 14:22:20;;;;;;;28.00;15.50;;;;;;;;;;5105477;28;20024;-69
2021/01/31 14:24:46;;;;;;;23.10;11.40;;;;;;;;;;5108077;28;20114;-68
2021/01/31 14:27:12;;;;;;;30.15;17.33;;;;;;;;;;5109012;28;20035;-70
2021/01/31 14:29:38;;;;;;;27.98;14.68;;;;;;;;;;5109462;28;20059;-70